sensor_id;sensor_type;location;lat;lon;timestamp;pressure;altitude;pressure_sealevel;temperature;humidity
10978;BME280;5542;48.272;10.794;2023-02-14T00:02:16;97509.56;;;-0.22;100.00
10978;BME280;5542;48.272;10.794;2023-02-14T00:04:43;97513.09;;;-0.12;100.00
10978;BME280;5542;48.272;10.794;2023-02-14T00:07:12;97511.81;;;-0.17;100.00
10978;BME280;5542;48.272;10.794;2023-02-14T00:09:39;97510.63;;;-0.13;100.00
10978;BME280;5542;48.272;10.794;2023-02-14T00:12:05;97510.75;;;-0.04;100.00
10978;BME280;5542;48.272;10.794;2023-02-14T00:14:32;97509.13;;;-0.05;100.00
10978;BME280;5542;48.272;10.794;2023-02-14T00:17:18;97510.63;;;-0.02;100.00
10978;BME280;5542;48.272;10.794;2023-02-14T00:19:44;97510.63;;;-0.13;100.00
10978;BME280;5542;48.272;10.794;2023-02-14T00:22:11;97516.16;;;-0.18;100.00
10978;BME280;5542;48.272;10.794;2023-02-14T00:24:37;97520.97;;;-0.24;100.00
10978;BME280;5542;48.272;10.794;2023-02-14T00:27:04;97519.69;;;-0.08;100.00
10978;BME280;5542;48.272;10.794;2023-02-14T00:29:31;97520.75;;;-0.21;100.00
10978;BME280;5542;48.272;10.794;2023-02-14T00:31:58;97511.78;;;-0.29;100.00
10978;BME280;5542;48.272;10.794;2023-02-14T00:34:26;97507.00;;;-0.22;100.00
10978;BME280;5542;48.272;10.794;2023-02-14T00:36:53;97508.28;;;-0.16;100.00
10978;BME280;5542;48.272;10.794;2023-02-14T00:39:20;97507.47;;;-0.28;100.00
10978;BME280;5542;48.272;10.794;2023-02-14T00:41:47;97513.69;;;-0.31;100.00
10978;BME280;5542;48.272;10.794;2023-02-14T00:44:13;97516.16;;;-0.29;100.00
10978;BME280;5542;48.272;10.794;2023-02-14T00:46:40;97515.44;;;-0.31;100.00
10978;BME280;5542;48.272;10.794;2023-02-14T00:49:07;97516.75;;;-0.26;100.00
10978;BME280;5542;48.272;10.794;2023-02-14T00:51:35;97513.56;;;-0.18;100.00
10978;BME280;5542;48.272;10.794;2023-02-14T00:54:02;97512.03;;;-0.20;100.00
10978;BME280;5542;48.272;10.794;2023-02-14T00:56:29;97514.03;;;-0.24;100.00
10978;BME280;5542;48.272;10.794;2023-02-14T00:58:55;97522.72;;;-0.25;100.00
10978;BME280;5542;48.272;10.794;2023-02-14T01:01:22;97520.28;;;-0.27;100.00
10978;BME280;5542;48.272;10.794;2023-02-14T01:03:48;97524.28;;;-0.22;100.00
10978;BME280;5542;48.272;10.794;2023-02-14T01:06:15;97538.25;;;-0.25;100.00
10978;BME280;5542;48.272;10.794;2023-02-14T01:08:43;97534.84;;;-0.26;100.00
10978;BME280;5542;48.272;10.794;2023-02-14T01:11:11;97531.31;;;-0.24;99.60
10978;BME280;5542;48.272;10.794;2023-02-14T01:13:38;97527.31;;;-0.29;99.68
10978;BME280;5542;48.272;10.794;2023-02-14T01:16:07;97516.28;;;-0.31;99.84
10978;BME280;5542;48.272;10.794;2023-02-14T01:18:34;97526.72;;;-0.43;99.88
10978;BME280;5542;48.272;10.794;2023-02-14T01:21:13;97526.34;;;-0.50;100.00
10978;BME280;5542;48.272;10.794;2023-02-14T01:23:39;97527.06;;;-0.48;100.00
10978;BME280;5542;48.272;10.794;2023-02-14T01:26:08;97528.00;;;-0.49;100.00
10978;BME280;5542;48.272;10.794;2023-02-14T01:28:35;97533.41;;;-0.41;100.00
10978;BME280;5542;48.272;10.794;2023-02-14T01:31:07;97529.88;;;-0.40;100.00
10978;BME280;5542;48.272;10.794;2023-02-14T01:33:34;97523.56;;;-0.47;100.00
10978;BME280;5542;48.272;10.794;2023-02-14T01:36:01;97526.09;;;-0.58;100.00
10978;BME280;5542;48.272;10.794;2023-02-14T01:38:27;97527.53;;;-0.54;100.00
10978;BME280;5542;48.272;10.794;2023-02-14T01:40:54;97519.88;;;-0.56;100.00
10978;BME280;5542;48.272;10.794;2023-02-14T01:43:22;97513.31;;;-0.60;100.00
10978;BME280;5542;48.272;10.794;2023-02-14T01:45:48;97525.88;;;-0.66;100.00
10978;BME280;5542;48.272;10.794;2023-02-14T01:48:16;97522.91;;;-0.73;100.00
10978;BME280;5542;48.272;10.794;2023-02-14T01:50:44;97520.69;;;-0.66;100.00
10978;BME280;5542;48.272;10.794;2023-02-14T01:53:14;97527.41;;;-0.53;100.00
10978;BME280;5542;48.272;10.794;2023-02-14T01:55:45;97518.13;;;-0.44;100.00
10978;BME280;5542;48.272;10.794;2023-02-14T01:58:14;97527.19;;;-0.38;100.00
10978;BME280;5542;48.272;10.794;2023-02-14T02:00:46;97519.31;;;-0.37;100.00
10978;BME280;5542;48.272;10.794;2023-02-14T02:03:23;97521.66;;;-0.45;98.70
10978;BME280;5542;48.272;10.794;2023-02-14T02:05:54;97519.16;;;-0.69;99.13
10978;BME280;5542;48.272;10.794;2023-02-14T02:08:23;97517.16;;;-0.65;99.53
10978;BME280;5542;48.272;10.794;2023-02-14T02:10:50;97519.84;;;-0.67;99.00
10978;BME280;5542;48.272;10.794;2023-02-14T02:13:18;97511.28;;;-0.67;99.24
10978;BME280;5542;48.272;10.794;2023-02-14T02:15:56;97515.03;;;-0.71;99.82
10978;BME280;5542;48.272;10.794;2023-02-14T02:18:35;97514.81;;;-0.68;99.35
10978;BME280;5542;48.272;10.794;2023-02-14T02:21:39;97520.44;;;-0.63;99.78
10978;BME280;5542;48.272;10.794;2023-02-14T02:24:34;97513.91;;;-0.56;100.00
10978;BME280;5542;48.272;10.794;2023-02-14T02:27:18;97511.44;;;-0.46;100.00
10978;BME280;5542;48.272;10.794;2023-02-14T02:36:05;97498.06;;;-0.52;98.61
10978;BME280;5542;48.272;10.794;2023-02-14T02:38:47;97499.91;;;-0.65;98.27
10978;BME280;5542;48.272;10.794;2023-02-14T02:41:24;97497.19;;;-0.63;98.79
10978;BME280;5542;48.272;10.794;2023-02-14T02:44:03;97503.09;;;-0.61;99.01
10978;BME280;5542;48.272;10.794;2023-02-14T02:46:35;97503.78;;;-0.59;97.63
10978;BME280;5542;48.272;10.794;2023-02-14T02:49:20;97505.41;;;-0.81;97.86
10978;BME280;5542;48.272;10.794;2023-02-14T02:52:09;97512.88;;;-0.89;98.74
10978;BME280;5542;48.272;10.794;2023-02-14T02:54:59;97509.22;;;-0.97;98.58
10978;BME280;5542;48.272;10.794;2023-02-14T02:57:34;97517.56;;;-0.94;99.46
10978;BME280;5542;48.272;10.794;2023-02-14T03:00:04;97517.78;;;-0.97;99.64
10978;BME280;5542;48.272;10.794;2023-02-14T03:02:35;97514.50;;;-0.99;99.96
10978;BME280;5542;48.272;10.794;2023-02-14T03:05:24;97520.97;;;-0.93;100.00
10978;BME280;5542;48.272;10.794;2023-02-14T03:07:53;97523.44;;;-0.92;100.00
10978;BME280;5542;48.272;10.794;2023-02-14T03:10:21;97525.19;;;-0.92;100.00
10978;BME280;5542;48.272;10.794;2023-02-14T03:15:45;97526.50;;;-0.87;99.99
10978;BME280;5542;48.272;10.794;2023-02-14T03:18:28;97521.19;;;-0.96;99.51
10978;BME280;5542;48.272;10.794;2023-02-14T03:21:24;97515.59;;;-1.14;99.93
10978;BME280;5542;48.272;10.794;2023-02-14T03:23:57;97516.19;;;-1.11;100.00
10978;BME280;5542;48.272;10.794;2023-02-14T03:26:34;97514.22;;;-1.07;100.00
10978;BME280;5542;48.272;10.794;2023-02-14T03:29:09;97511.78;;;-1.09;100.00
10978;BME280;5542;48.272;10.794;2023-02-14T03:31:45;97509.91;;;-0.95;100.00
10978;BME280;5542;48.272;10.794;2023-02-14T03:34:22;97507.94;;;-0.92;100.00
10978;BME280;5542;48.272;10.794;2023-02-14T03:36:54;97503.72;;;-0.82;100.00
10978;BME280;5542;48.272;10.794;2023-02-14T03:39:26;97508.81;;;-0.80;100.00
10978;BME280;5542;48.272;10.794;2023-02-14T03:42:00;97498.34;;;-0.79;100.00
10978;BME280;5542;48.272;10.794;2023-02-14T03:44:29;97497.19;;;-0.74;100.00
10978;BME280;5542;48.272;10.794;2023-02-14T03:47:01;97497.44;;;-0.66;100.00
10978;BME280;5542;48.272;10.794;2023-02-14T03:49:33;97497.94;;;-0.50;100.00
10978;BME280;5542;48.272;10.794;2023-02-14T03:52:02;97501.78;;;-0.44;100.00
10978;BME280;5542;48.272;10.794;2023-02-14T03:54:32;97505.22;;;-0.44;99.46
10978;BME280;5542;48.272;10.794;2023-02-14T03:57:04;97512.38;;;-0.47;99.59
10978;BME280;5542;48.272;10.794;2023-02-14T03:59:34;97510.97;;;-0.52;99.23
10978;BME280;5542;48.272;10.794;2023-02-14T04:02:04;97516.50;;;-0.45;97.32
10978;BME280;5542;48.272;10.794;2023-02-14T04:04:34;97511.13;;;-0.77;97.29
10978;BME280;5542;48.272;10.794;2023-02-14T04:07:08;97511.47;;;-0.82;98.20
10978;BME280;5542;48.272;10.794;2023-02-14T04:09:36;97505.63;;;-0.72;98.51
10978;BME280;5542;48.272;10.794;2023-02-14T04:12:03;97506.84;;;-0.65;98.28
10978;BME280;5542;48.272;10.794;2023-02-14T04:14:30;97508.47;;;-0.75;97.17
10978;BME280;5542;48.272;10.794;2023-02-14T04:16:56;97503.16;;;-0.74;98.07
10978;BME280;5542;48.272;10.794;2023-02-14T04:19:40;97503.03;;;-0.72;98.07
10978;BME280;5542;48.272;10.794;2023-02-14T04:22:07;97500.38;;;-0.71;98.15
10978;BME280;5542;48.272;10.794;2023-02-14T04:24:33;97506.84;;;-0.65;98.53
10978;BME280;5542;48.272;10.794;2023-02-14T04:27:02;97517.41;;;-0.57;98.10
10978;BME280;5542;48.272;10.794;2023-02-14T04:29:39;97508.94;;;-0.59;97.80
10978;BME280;5542;48.272;10.794;2023-02-14T04:32:07;97512.47;;;-0.60;97.41
10978;BME280;5542;48.272;10.794;2023-02-14T04:34:34;97504.47;;;-0.68;97.42
10978;BME280;5542;48.272;10.794;2023-02-14T04:37:01;97502.09;;;-0.71;97.92
10978;BME280;5542;48.272;10.794;2023-02-14T04:39:27;97504.00;;;-0.73;97.64
10978;BME280;5542;48.272;10.794;2023-02-14T04:41:54;97508.34;;;-0.74;97.66
10978;BME280;5542;48.272;10.794;2023-02-14T04:44:22;97510.91;;;-0.74;97.70
10978;BME280;5542;48.272;10.794;2023-02-14T04:46:48;97509.03;;;-0.72;98.08
10978;BME280;5542;48.272;10.794;2023-02-14T04:49:15;97512.59;;;-0.62;97.68
10978;BME280;5542;48.272;10.794;2023-02-14T04:51:42;97512.00;;;-0.65;97.10
10978;BME280;5542;48.272;10.794;2023-02-14T04:54:09;97504.69;;;-0.71;96.95
10978;BME280;5542;48.272;10.794;2023-02-14T04:56:35;97504.53;;;-0.81;97.09
10978;BME280;5542;48.272;10.794;2023-02-14T04:59:02;97494.91;;;-0.90;97.04
10978;BME280;5542;48.272;10.794;2023-02-14T05:01:30;97509.34;;;-0.88;97.92
10978;BME280;5542;48.272;10.794;2023-02-14T05:03:57;97497.75;;;-0.82;98.22
10978;BME280;5542;48.272;10.794;2023-02-14T05:06:23;97498.56;;;-0.82;98.07
10978;BME280;5542;48.272;10.794;2023-02-14T05:08:50;97498.22;;;-0.77;96.45
10978;BME280;5542;48.272;10.794;2023-02-14T05:11:16;97487.53;;;-0.84;95.67
10978;BME280;5542;48.272;10.794;2023-02-14T05:13:43;97488.06;;;-1.02;97.12
10978;BME280;5542;48.272;10.794;2023-02-14T05:16:09;97488.88;;;-1.02;97.47
10978;BME280;5542;48.272;10.794;2023-02-14T05:18:37;97489.84;;;-1.03;98.33
10978;BME280;5542;48.272;10.794;2023-02-14T05:21:04;97484.31;;;-0.98;98.44
10978;BME280;5542;48.272;10.794;2023-02-14T05:23:31;97490.78;;;-1.04;99.16
10978;BME280;5542;48.272;10.794;2023-02-14T05:25:58;97481.41;;;-0.94;99.49
10978;BME280;5542;48.272;10.794;2023-02-14T05:28:24;97486.94;;;-0.87;99.15
10978;BME280;5542;48.272;10.794;2023-02-14T05:30:51;97489.50;;;-0.87;99.27
10978;BME280;5542;48.272;10.794;2023-02-14T05:33:17;97485.78;;;-0.83;99.10
10978;BME280;5542;48.272;10.794;2023-02-14T05:35:45;97484.06;;;-0.60;98.22
10978;BME280;5542;48.272;10.794;2023-02-14T05:38:12;97488.50;;;-0.73;97.92
10978;BME280;5542;48.272;10.794;2023-02-14T05:40:39;97489.19;;;-0.71;98.08
10978;BME280;5542;48.272;10.794;2023-02-14T05:43:06;97482.97;;;-0.58;96.77
10978;BME280;5542;48.272;10.794;2023-02-14T05:45:32;97487.19;;;-0.68;97.22
10978;BME280;5542;48.272;10.794;2023-02-14T05:47:59;97485.91;;;-0.73;97.13
10978;BME280;5542;48.272;10.794;2023-02-14T05:50:26;97494.34;;;-0.83;97.15
10978;BME280;5542;48.272;10.794;2023-02-14T05:52:54;97493.66;;;-0.85;96.98
10978;BME280;5542;48.272;10.794;2023-02-14T05:55:21;97493.34;;;-1.04;96.65
10978;BME280;5542;48.272;10.794;2023-02-14T05:57:48;97489.25;;;-0.95;97.34
10978;BME280;5542;48.272;10.794;2023-02-14T06:00:16;97483.03;;;-0.93;97.27
10978;BME280;5542;48.272;10.794;2023-02-14T06:02:43;97483.88;;;-0.92;97.82
10978;BME280;5542;48.272;10.794;2023-02-14T06:05:09;97479.06;;;-0.86;98.06
10978;BME280;5542;48.272;10.794;2023-02-14T06:07:36;97481.41;;;-0.83;98.09
10978;BME280;5542;48.272;10.794;2023-02-14T06:10:05;97490.38;;;-0.75;97.91
10978;BME280;5542;48.272;10.794;2023-02-14T06:12:34;97491.06;;;-0.73;97.66
10978;BME280;5542;48.272;10.794;2023-02-14T06:15:00;97479.78;;;-0.72;96.95
10978;BME280;5542;48.272;10.794;2023-02-14T06:17:27;97487.66;;;-0.74;97.40
10978;BME280;5542;48.272;10.794;2023-02-14T06:19:53;97484.00;;;-0.71;97.67
10978;BME280;5542;48.272;10.794;2023-02-14T06:22:20;97482.75;;;-0.66;96.85
10978;BME280;5542;48.272;10.794;2023-02-14T06:24:46;97484.53;;;-0.66;96.58
10978;BME280;5542;48.272;10.794;2023-02-14T06:27:14;97482.84;;;-0.79;96.10
10978;BME280;5542;48.272;10.794;2023-02-14T06:29:41;97482.97;;;-0.80;96.05
10978;BME280;5542;48.272;10.794;2023-02-14T06:32:07;97485.91;;;-0.73;95.39
10978;BME280;5542;48.272;10.794;2023-02-14T06:34:34;97488.22;;;-0.82;94.66
10978;BME280;5542;48.272;10.794;2023-02-14T06:37:01;97494.56;;;-0.86;95.43
10978;BME280;5542;48.272;10.794;2023-02-14T06:39:27;97487.06;;;-0.78;95.15
10978;BME280;5542;48.272;10.794;2023-02-14T06:41:54;97492.22;;;-0.89;95.57
10978;BME280;5542;48.272;10.794;2023-02-14T06:44:22;97503.00;;;-0.95;95.43
10978;BME280;5542;48.272;10.794;2023-02-14T06:46:48;97491.69;;;-1.05;95.30
10978;BME280;5542;48.272;10.794;2023-02-14T06:49:15;97491.53;;;-1.15;95.89
10978;BME280;5542;48.272;10.794;2023-02-14T06:51:41;97491.19;;;-1.10;96.44
10978;BME280;5542;48.272;10.794;2023-02-14T06:54:08;97491.00;;;-1.07;96.69
10978;BME280;5542;48.272;10.794;2023-02-14T06:56:34;97495.97;;;-0.93;96.23
10978;BME280;5542;48.272;10.794;2023-02-14T06:59:01;97489.97;;;-0.93;96.50
10978;BME280;5542;48.272;10.794;2023-02-14T07:01:29;97492.44;;;-0.92;96.29
10978;BME280;5542;48.272;10.794;2023-02-14T07:03:55;97494.06;;;-0.91;95.73
10978;BME280;5542;48.272;10.794;2023-02-14T07:06:22;97497.13;;;-0.97;95.54
10978;BME280;5542;48.272;10.794;2023-02-14T07:08:48;97493.94;;;-1.00;95.82
10978;BME280;5542;48.272;10.794;2023-02-14T07:11:15;97491.47;;;-1.02;96.44
10978;BME280;5542;48.272;10.794;2023-02-14T07:13:42;97494.31;;;-0.94;96.88
10978;BME280;5542;48.272;10.794;2023-02-14T07:16:09;97497.47;;;-1.01;96.36
10978;BME280;5542;48.272;10.794;2023-02-14T07:18:37;97495.81;;;-1.02;96.08
10978;BME280;5542;48.272;10.794;2023-02-14T07:21:04;97493.09;;;-1.12;94.97
10978;BME280;5542;48.272;10.794;2023-02-14T07:23:30;97486.81;;;-1.21;95.79
10978;BME280;5542;48.272;10.794;2023-02-14T07:25:57;97490.09;;;-1.19;96.14
10978;BME280;5542;48.272;10.794;2023-02-14T07:28:23;97486.38;;;-1.15;95.96
10978;BME280;5542;48.272;10.794;2023-02-14T07:30:50;97491.88;;;-1.19;95.85
10978;BME280;5542;48.272;10.794;2023-02-14T07:33:16;97491.00;;;-1.07;96.00
10978;BME280;5542;48.272;10.794;2023-02-14T07:35:44;97490.66;;;-1.02;96.51
10978;BME280;5542;48.272;10.794;2023-02-14T07:38:11;97492.16;;;-1.00;96.27
10978;BME280;5542;48.272;10.794;2023-02-14T07:40:38;97493.50;;;-0.94;96.18
10978;BME280;5542;48.272;10.794;2023-02-14T07:43:04;97491.00;;;-0.96;95.63
10978;BME280;5542;48.272;10.794;2023-02-14T07:45:32;97485.00;;;-1.08;95.27
10978;BME280;5542;48.272;10.794;2023-02-14T07:47:59;97483.59;;;-1.00;95.85
10978;BME280;5542;48.272;10.794;2023-02-14T07:50:26;97485.63;;;-0.93;95.25
10978;BME280;5542;48.272;10.794;2023-02-14T07:52:55;97488.41;;;-1.07;95.74
10978;BME280;5542;48.272;10.794;2023-02-14T07:55:22;97478.81;;;-0.94;95.62
10978;BME280;5542;48.272;10.794;2023-02-14T07:57:49;97482.09;;;-0.92;94.50
10978;BME280;5542;48.272;10.794;2023-02-14T08:00:17;97476.47;;;-0.97;94.94
10978;BME280;5542;48.272;10.794;2023-02-14T08:02:43;97478.34;;;-0.88;94.75
10978;BME280;5542;48.272;10.794;2023-02-14T08:05:10;97483.03;;;-0.93;95.07
10978;BME280;5542;48.272;10.794;2023-02-14T08:07:37;97483.53;;;-0.88;94.22
10978;BME280;5542;48.272;10.794;2023-02-14T08:10:06;97482.97;;;-0.80;94.29
10978;BME280;5542;48.272;10.794;2023-02-14T08:12:32;97471.44;;;-0.87;93.70
10978;BME280;5542;48.272;10.794;2023-02-14T08:15:17;97487.06;;;-0.89;93.49
10978;BME280;5542;48.272;10.794;2023-02-14T08:18:01;97480.81;;;-0.97;93.34
10978;BME280;5542;48.272;10.794;2023-02-14T08:20:27;97478.56;;;-1.02;93.59
10978;BME280;5542;48.272;10.794;2023-02-14T08:22:54;97480.00;;;-0.87;93.53
10978;BME280;5542;48.272;10.794;2023-02-14T08:25:22;97479.53;;;-0.92;93.06
10978;BME280;5542;48.272;10.794;2023-02-14T08:27:49;97472.72;;;-0.93;92.46
10978;BME280;5542;48.272;10.794;2023-02-14T08:30:16;97474.69;;;-0.96;92.86
10978;BME280;5542;48.272;10.794;2023-02-14T08:32:42;97474.09;;;-1.00;92.24
10978;BME280;5542;48.272;10.794;2023-02-14T08:35:09;97473.88;;;-0.97;92.50
10978;BME280;5542;48.272;10.794;2023-02-14T08:37:35;97480.59;;;-0.94;92.76
10978;BME280;5542;48.272;10.794;2023-02-14T08:40:02;97480.25;;;-0.90;93.56
10978;BME280;5542;48.272;10.794;2023-02-14T08:42:30;97473.44;;;-0.80;93.27
10978;BME280;5542;48.272;10.794;2023-02-14T08:44:57;97477.81;;;-0.80;93.15
10978;BME280;5542;48.272;10.794;2023-02-14T08:47:24;97478.28;;;-0.75;92.35
10978;BME280;5542;48.272;10.794;2023-02-14T08:49:50;97479.56;;;-0.81;92.52
10978;BME280;5542;48.272;10.794;2023-02-14T08:52:17;97477.47;;;-0.64;92.94
10978;BME280;5542;48.272;10.794;2023-02-14T08:54:43;97474.75;;;-0.63;93.18
10978;BME280;5542;48.272;10.794;2023-02-14T08:57:10;97469.50;;;-0.61;93.59
10978;BME280;5542;48.272;10.794;2023-02-14T08:59:38;97476.53;;;-0.63;93.35
10978;BME280;5542;48.272;10.794;2023-02-14T09:02:05;97477.94;;;-0.59;93.73
10978;BME280;5542;48.272;10.794;2023-02-14T09:07:00;97470.66;;;-0.65;92.92
10978;BME280;5542;48.272;10.794;2023-02-14T09:09:28;97469.72;;;-0.64;93.31
10978;BME280;5542;48.272;10.794;2023-02-14T09:11:55;97465.13;;;-0.49;94.27
10978;BME280;5542;48.272;10.794;2023-02-14T09:14:22;97467.50;;;-0.46;94.28
10978;BME280;5542;48.272;10.794;2023-02-14T09:16:50;97471.50;;;-0.42;93.60
10978;BME280;5542;48.272;10.794;2023-02-14T09:19:17;97462.69;;;-0.40;94.12
10978;BME280;5542;48.272;10.794;2023-02-14T09:21:43;97462.81;;;-0.41;94.99
10978;BME280;5542;48.272;10.794;2023-02-14T09:24:10;97472.31;;;-0.31;95.82
10978;BME280;5542;48.272;10.794;2023-02-14T09:26:36;97467.75;;;-0.27;94.84
10978;BME280;5542;48.272;10.794;2023-02-14T09:29:05;97466.91;;;-0.28;93.90
10978;BME280;5542;48.272;10.794;2023-02-14T09:31:31;97461.41;;;-0.23;94.84
10978;BME280;5542;48.272;10.794;2023-02-14T09:33:59;97463.63;;;-0.18;94.54
10978;BME280;5542;48.272;10.794;2023-02-14T09:36:26;97467.59;;;-0.14;95.02
10978;BME280;5542;48.272;10.794;2023-02-14T09:39:10;97461.97;;;-0.08;94.70
10978;BME280;5542;48.272;10.794;2023-02-14T09:42:25;97469.84;;;0.02;93.15
10978;BME280;5542;48.272;10.794;2023-02-14T09:45:00;97472.75;;;-0.14;93.39
10978;BME280;5542;48.272;10.794;2023-02-14T09:47:34;97467.50;;;-0.13;93.08
10978;BME280;5542;48.272;10.794;2023-02-14T09:50:06;97467.72;;;-0.16;92.37
10978;BME280;5542;48.272;10.794;2023-02-14T09:52:33;97470.06;;;-0.24;92.83
10978;BME280;5542;48.272;10.794;2023-02-14T09:55:01;97471.59;;;-0.44;93.99
10978;BME280;5542;48.272;10.794;2023-02-14T09:57:35;97469.59;;;-0.40;95.08
10978;BME280;5542;48.272;10.794;2023-02-14T10:00:16;97469.75;;;-0.42;95.68
10978;BME280;5542;48.272;10.794;2023-02-14T10:02:54;97472.41;;;-0.10;94.96
10978;BME280;5542;48.272;10.794;2023-02-14T10:05:26;97468.06;;;-0.20;94.55
10978;BME280;5542;48.272;10.794;2023-02-14T10:08:02;97466.31;;;-0.20;96.07
10978;BME280;5542;48.272;10.794;2023-02-14T10:10:36;97465.00;;;-0.14;95.59
10978;BME280;5542;48.272;10.794;2023-02-14T10:13:09;97467.81;;;-0.06;94.53
10978;BME280;5542;48.272;10.794;2023-02-14T10:15:42;97458.44;;;-0.07;94.82
10978;BME280;5542;48.272;10.794;2023-02-14T10:18:12;97451.63;;;-0.08;95.34
10978;BME280;5542;48.272;10.794;2023-02-14T10:20:43;97452.09;;;-0.03;95.65
10978;BME280;5542;48.272;10.794;2023-02-14T10:23:22;97446.28;;;0.05;94.99
10978;BME280;5542;48.272;10.794;2023-02-14T10:25:53;97446.69;;;0.00;95.09
10978;BME280;5542;48.272;10.794;2023-02-14T10:28:26;97447.13;;;0.05;94.94
10978;BME280;5542;48.272;10.794;2023-02-14T10:31:03;97442.28;;;0.12;95.35
10978;BME280;5542;48.272;10.794;2023-02-14T10:33:33;97435.81;;;0.17;95.63
10978;BME280;5542;48.272;10.794;2023-02-14T10:36:07;97441.38;;;0.45;94.27
10978;BME280;5542;48.272;10.794;2023-02-14T10:38:40;97444.59;;;0.26;93.03
10978;BME280;5542;48.272;10.794;2023-02-14T10:41:26;97438.03;;;0.22;94.52
10978;BME280;5542;48.272;10.794;2023-02-14T10:44:03;97434.56;;;0.33;95.58
10978;BME280;5542;48.272;10.794;2023-02-14T10:46:42;97425.97;;;0.43;94.27
10978;BME280;5542;48.272;10.794;2023-02-14T10:49:22;97429.75;;;0.39;94.95
10978;BME280;5542;48.272;10.794;2023-02-14T10:51:54;97435.59;;;0.53;94.37
10978;BME280;5542;48.272;10.794;2023-02-14T10:54:25;97434.78;;;0.41;94.56
10978;BME280;5542;48.272;10.794;2023-02-14T10:56:55;97427.56;;;0.56;94.02
10978;BME280;5542;48.272;10.794;2023-02-14T10:59:29;97428.13;;;0.59;94.74
10978;BME280;5542;48.272;10.794;2023-02-14T11:01:57;97426.75;;;0.55;95.36
10978;BME280;5542;48.272;10.794;2023-02-14T11:04:25;97417.91;;;0.58;95.52
10978;BME280;5542;48.272;10.794;2023-02-14T11:06:53;97408.94;;;0.62;95.07
10978;BME280;5542;48.272;10.794;2023-02-14T11:09:20;97411.41;;;0.63;95.60
10978;BME280;5542;48.272;10.794;2023-02-14T11:11:49;97399.72;;;0.69;97.02
10978;BME280;5542;48.272;10.794;2023-02-14T11:14:22;97392.69;;;0.81;97.27
10978;BME280;5542;48.272;10.794;2023-02-14T11:16:50;97399.63;;;0.91;97.48
10978;BME280;5542;48.272;10.794;2023-02-14T11:19:23;97401.75;;;1.07;97.64
10978;BME280;5542;48.272;10.794;2023-02-14T11:21:51;97385.81;;;1.12;96.63
10978;BME280;5542;48.272;10.794;2023-02-14T11:24:26;97378.66;;;1.25;96.16
10978;BME280;5542;48.272;10.794;2023-02-14T11:26:54;97374.97;;;1.27;95.36
10978;BME280;5542;48.272;10.794;2023-02-14T11:29:26;97377.06;;;1.34;95.63
10978;BME280;5542;48.272;10.794;2023-02-14T11:31:53;97366.84;;;1.42;95.98
10978;BME280;5542;48.272;10.794;2023-02-14T11:34:34;97361.00;;;1.49;95.19
10978;BME280;5542;48.272;10.794;2023-02-14T11:37:16;97360.34;;;1.57;95.26
10978;BME280;5542;48.272;10.794;2023-02-14T11:39:44;97356.97;;;1.66;94.46
10978;BME280;5542;48.272;10.794;2023-02-14T11:42:11;97354.63;;;1.63;92.96
10978;BME280;5542;48.272;10.794;2023-02-14T11:44:53;97359.69;;;1.65;92.91
10978;BME280;5542;48.272;10.794;2023-02-14T11:47:25;97350.25;;;1.64;92.93
10978;BME280;5542;48.272;10.794;2023-02-14T11:49:54;97354.22;;;1.58;91.82
10978;BME280;5542;48.272;10.794;2023-02-14T11:52:21;97350.94;;;1.66;91.33
10978;BME280;5542;48.272;10.794;2023-02-14T11:54:52;97343.88;;;1.77;90.18
10978;BME280;5542;48.272;10.794;2023-02-14T11:57:22;97349.69;;;1.60;90.97
10978;BME280;5542;48.272;10.794;2023-02-14T11:59:52;97343.47;;;1.72;90.89
10978;BME280;5542;48.272;10.794;2023-02-14T12:02:25;97346.16;;;1.61;89.50
10978;BME280;5542;48.272;10.794;2023-02-14T12:04:55;97340.97;;;1.61;91.33
10978;BME280;5542;48.272;10.794;2023-02-14T12:07:25;97334.06;;;1.81;89.59
10978;BME280;5542;48.272;10.794;2023-02-14T12:10:24;97327.31;;;1.59;90.58
10978;BME280;5542;48.272;10.794;2023-02-14T12:12:56;97331.47;;;1.71;91.03
10978;BME280;5542;48.272;10.794;2023-02-14T12:15:29;97325.47;;;1.81;91.01
10978;BME280;5542;48.272;10.794;2023-02-14T12:20:52;97324.88;;;1.67;91.13
10978;BME280;5542;48.272;10.794;2023-02-14T12:23:26;97321.75;;;1.64;92.42
10978;BME280;5542;48.272;10.794;2023-02-14T12:25:59;97322.66;;;1.53;93.78
10978;BME280;5542;48.272;10.794;2023-02-14T12:28:30;97321.19;;;1.70;95.90
10978;BME280;5542;48.272;10.794;2023-02-14T12:31:07;97312.06;;;1.75;96.17
10978;BME280;5542;48.272;10.794;2023-02-14T12:33:34;97319.47;;;1.99;95.05
10978;BME280;5542;48.272;10.794;2023-02-14T12:36:09;97314.69;;;1.95;93.57
10978;BME280;5542;48.272;10.794;2023-02-14T12:38:48;97308.41;;;2.07;90.79
10978;BME280;5542;48.272;10.794;2023-02-14T12:41:27;97303.19;;;1.88;91.79
10978;BME280;5542;48.272;10.794;2023-02-14T12:43:58;97296.25;;;1.88;92.08
10978;BME280;5542;48.272;10.794;2023-02-14T12:46:44;97295.44;;;2.07;91.95
10978;BME280;5542;48.272;10.794;2023-02-14T12:49:50;97292.00;;;1.97;90.83
10978;BME280;5542;48.272;10.794;2023-02-14T12:52:37;97293.53;;;2.28;89.85
10978;BME280;5542;48.272;10.794;2023-02-14T12:55:22;97290.94;;;2.19;89.81
10978;BME280;5542;48.272;10.794;2023-02-14T12:57:57;97289.81;;;2.21;90.06
10978;BME280;5542;48.272;10.794;2023-02-14T13:00:33;97276.69;;;2.13;90.50
10978;BME280;5542;48.272;10.794;2023-02-14T13:03:25;97274.09;;;2.13;91.85
10978;BME280;5542;48.272;10.794;2023-02-14T13:06:03;97270.69;;;2.22;90.19
10978;BME280;5542;48.272;10.794;2023-02-14T13:08:47;97266.72;;;2.09;91.47
10978;BME280;5542;48.272;10.794;2023-02-14T13:11:22;97266.31;;;2.13;94.04
10978;BME280;5542;48.272;10.794;2023-02-14T13:13:56;97266.44;;;2.31;91.04
10978;BME280;5542;48.272;10.794;2023-02-14T13:16:34;97263.69;;;2.33;90.60
10978;BME280;5542;48.272;10.794;2023-02-14T13:19:05;97259.06;;;2.26;91.76
10978;BME280;5542;48.272;10.794;2023-02-14T13:21:38;97253.88;;;2.36;88.54
10978;BME280;5542;48.272;10.794;2023-02-14T13:24:14;97258.41;;;2.15;90.01
10978;BME280;5542;48.272;10.794;2023-02-14T13:26:43;97258.00;;;2.10;91.13
10978;BME280;5542;48.272;10.794;2023-02-14T13:29:18;97259.22;;;2.15;90.29
10978;BME280;5542;48.272;10.794;2023-02-14T13:31:48;97249.53;;;2.08;90.91
10978;BME280;5542;48.272;10.794;2023-02-14T13:34:21;97251.84;;;2.11;92.06